Hardin, IL

8:51 AM CST on January 26, 2015 (GMT -0600)
Lambert-Saint Louis International | Change Station
CLOSE
Current Station
Airport
Location: St. Louis,
Elevation: 564 ft
Nearby Weather Stations

Elev 564 ft 38.75 °N, 90.37 °W | Updated 1 hour ago

Overcast
Overcast
29 °F
Feels Like 20 °F
N
9
Wind Variable Wind from West

Today
High -- | Low -- °F
--% Chance of Precip.
Yesterday
High -- | Low -- °F
Precip. -- in
7:14 AM 5:16 PM
Waxing Crescent, 44% visible
Pressure 30.08 in
Visibility 10.0 miles
Clouds Overcast 2300 ft
Windchill 20 °F
Dew Point 21 °F
Humidity 72%
Rainfall 0.00 in
Snow Depth Not available.
UV 0 out of 12
Pollen .10 out of 12
Air Quality Not available.
Flu Activity Not available.
METAR KSTL 261351Z 28008KT 10SM OVC023 M02/M06 A3005 RMK AO2 SLP184 T10171061

More Conditions Fewer Conditions

Pressure 30.08 in
Visibility 10.0 miles
Clouds Overcast 2300 ft
Windchill 20 °F
Dew Point 21 °F
Humidity 72%
Rainfall 0.00 in
Snow Depth Not available.
UV 0 out of 12
Pollen .10 out of 12
Air Quality Not available.
Flu Activity Not available.
METAR KSTL 261351Z 28008KT 10SM OVC023 M02/M06 A3005 RMK AO2 SLP184 T10171061

More Conditions Fewer Conditions

10-Day Weather Forecast

Almanac

Astronomy

Jan. 26, 2015 Rise Set
Actual Time
Civil Twilight
Nautical Twilight
Astronomical Twilight
Moon
Length of Visible Light
Length of Day
Tomorrow will be .
, % of the Moon is Illuminated

Today's Extremes

State Highs State Lows

Community

WunderPhotos

Upload Photos

1,790,226 photos uploaded!

WunderBlogs® & News

Nearby

Air Quality

  Air Quality AQ Index Pollutant
Not available.

Snow Depth

Station Depth Elevation

Earthquake Activity

City Distance Mag. Time & Date
Minimum magnitude displayed is 2.5.

Coastal Water Temperatures

Place Temperature

Nearby Weather Stations